createdAt,value
2022-11-28T00:01:29.814Z,100832.75
2022-11-28T00:03:57.840Z,100830.41
2022-11-28T00:06:27.774Z,100836.81
2022-11-28T00:08:56.503Z,100844.88
2022-11-28T00:11:25.740Z,100832.75
2022-11-28T00:13:53.740Z,100846.56
2022-11-28T00:16:23.340Z,100847.91
2022-11-28T00:18:52.260Z,100825.00
2022-11-28T00:21:20.951Z,100817.09
2022-11-28T00:23:49.636Z,100821.97
2022-11-28T00:26:20.021Z,100829.88
2022-11-28T00:28:50.254Z,100812.09
2022-11-28T00:31:20.132Z,100829.38
2022-11-28T00:33:48.166Z,100819.16
2022-11-28T00:36:16.754Z,100834.13
2022-11-28T00:38:44.768Z,100823.38
2022-11-28T00:41:14.870Z,100833.44
2022-11-28T00:43:43.939Z,100824.88
2022-11-28T00:46:15.124Z,100810.25
2022-11-28T00:48:43.534Z,100798.13
2022-11-28T00:51:13.021Z,100767.34
2022-11-28T00:53:42.790Z,100768.22
2022-11-28T00:56:12.727Z,100796.63
2022-11-28T00:58:41.311Z,100795.94
2022-11-28T01:01:10.933Z,100788.72
2022-11-28T01:03:40.421Z,100770.19
2022-11-28T01:06:09.371Z,100756.09
2022-11-28T01:08:37.681Z,100732.22
2022-11-28T01:11:11.916Z,100764.84
2022-11-28T01:13:39.932Z,100730.25
2022-11-28T01:16:08.630Z,100771.25
2022-11-28T01:18:36.781Z,100754.09
2022-11-28T01:21:06.788Z,100749.56
2022-11-28T01:23:34.932Z,100741.81
2022-11-28T01:26:03.438Z,100758.13
2022-11-28T01:28:31.245Z,100780.00
2022-11-28T01:31:04.638Z,100775.59
2022-11-28T01:33:32.584Z,100764.00
2022-11-28T01:36:01.078Z,100758.28
2022-11-28T01:38:30.116Z,100769.03
2022-11-28T01:40:57.891Z,100777.78
2022-11-28T01:43:26.489Z,100757.25
2022-11-28T01:45:55.161Z,100735.88
2022-11-28T01:48:27.648Z,100709.00
2022-11-28T01:50:59.446Z,100693.53
2022-11-28T01:53:29.400Z,100686.66
2022-11-28T01:56:03.262Z,100691.34
2022-11-28T01:58:32.668Z,100704.16
2022-11-28T02:01:00.502Z,100715.56
2022-11-28T02:03:34.349Z,100715.19
2022-11-28T02:06:03.127Z,100702.94
2022-11-28T02:08:34.730Z,100702.78
2022-11-28T02:11:25.256Z,100687.50
2022-11-28T02:14:01.937Z,100691.19
2022-11-28T02:16:45.393Z,100676.78
2022-11-28T02:19:47.465Z,100676.91
2022-11-28T02:22:20.091Z,100667.66
2022-11-28T02:25:00.182Z,100653.88
2022-11-28T02:27:55.484Z,100647.47
2022-11-28T02:30:29.771Z,100650.47
2022-11-28T02:33:18.429Z,100645.78
2022-11-28T02:35:56.756Z,100637.03
2022-11-28T02:38:39.895Z,100654.34
2022-11-28T02:41:15.278Z,100679.75
2022-11-28T02:43:50.144Z,100686.13
2022-11-28T02:46:25.672Z,100689.81
2022-11-28T02:48:59.381Z,100687.81
2022-11-28T02:51:32.788Z,100691.53
2022-11-28T02:54:03.215Z,100684.78
2022-11-28T02:56:31.276Z,100678.72
2022-11-28T02:59:00.031Z,100663.75
2022-11-28T03:01:33.465Z,100647.78
2022-11-28T03:04:27.903Z,100650.81
2022-11-28T03:07:04.861Z,100642.41
2022-11-28T03:09:53.579Z,100633.47
2022-11-28T03:12:30.366Z,100640.03
2022-11-28T03:15:01.513Z,100638.34
2022-11-28T03:17:39.158Z,100645.44
2022-11-28T03:20:23.744Z,100648.44
2022-11-28T03:23:04.721Z,100643.19
2022-11-28T03:25:39.397Z,100631.25
2022-11-28T03:28:13.003Z,100631.28
2022-11-28T03:30:46.981Z,100625.94
2022-11-28T03:33:17.101Z,100624.75
2022-11-28T03:35:50.200Z,100625.94
2022-11-28T03:38:22.348Z,100627.44
2022-11-28T03:40:54.941Z,100632.78
2022-11-28T03:43:30.315Z,100633.16
2022-11-28T03:46:01.155Z,100627.59
2022-11-28T03:48:32.599Z,100612.09
2022-11-28T03:51:05.812Z,100612.97
2022-11-28T03:53:42.551Z,100610.63
2022-11-28T03:56:15.735Z,100601.56
2022-11-28T03:58:50.596Z,100608.75
2022-11-28T04:01:28.419Z,100608.13
2022-11-28T04:04:07.209Z,100602.72
2022-11-28T04:06:44.314Z,100605.09
2022-11-28T04:09:19.472Z,100603.78
2022-11-28T04:11:53.597Z,100600.22
2022-11-28T04:14:26.052Z,100602.06
2022-11-28T04:17:00.093Z,100606.94
2022-11-28T04:19:32.007Z,100599.53
2022-11-28T04:22:05.040Z,100601.41
2022-11-28T04:24:36.822Z,100614.00
2022-11-28T04:27:07.897Z,100599.69
2022-11-28T04:29:41.190Z,100604.09
2022-11-28T04:32:10.509Z,100609.97
2022-11-28T04:34:41.891Z,100603.38
2022-11-28T04:37:15.322Z,100591.28
2022-11-28T04:39:48.546Z,100601.00
2022-11-28T04:42:23.408Z,100601.00
2022-11-28T04:44:55.613Z,100593.13
2022-11-28T04:47:24.235Z,100600.41
2022-11-28T04:49:52.494Z,100588.78
2022-11-28T04:52:26.782Z,100588.28
2022-11-28T04:55:04.036Z,100589.16
2022-11-28T04:57:36.072Z,100577.53
2022-11-28T05:00:07.650Z,100575.88
2022-11-28T05:02:37.056Z,100578.56
2022-11-28T05:05:09.400Z,100574.16
2022-11-28T05:07:38.894Z,100575.84
2022-11-28T05:10:08.047Z,100572.44
2022-11-28T05:12:35.933Z,100581.56
2022-11-28T05:15:04.210Z,100589.28
2022-11-28T05:17:31.942Z,100576.19
2022-11-28T05:20:00.102Z,100583.34
2022-11-28T05:22:27.912Z,100585.22
2022-11-28T05:24:57.246Z,100587.91
2022-11-28T05:27:25.002Z,100588.75
2022-11-28T05:29:54.018Z,100586.59
2022-11-28T05:32:21.769Z,100592.81
2022-11-28T05:34:49.431Z,100588.91
2022-11-28T05:37:17.146Z,100581.22
2022-11-28T05:39:45.297Z,100582.91
2022-11-28T05:42:14.521Z,100581.56
2022-11-28T05:44:42.570Z,100581.22
2022-11-28T05:47:10.430Z,100580.22
2022-11-28T05:49:38.227Z,100569.78
2022-11-28T05:52:05.993Z,100565.25
2022-11-28T05:54:33.694Z,100561.19
2022-11-28T05:57:02.863Z,100560.00
2022-11-28T05:59:31.953Z,100556.63
2022-11-28T06:02:00.212Z,100557.66
2022-11-28T06:04:28.483Z,100554.81
2022-11-28T06:06:56.440Z,100562.88
2022-11-28T06:09:25.980Z,100563.06
2022-11-28T06:11:54.631Z,100565.75
2022-11-28T06:14:22.439Z,100568.59
2022-11-28T06:16:54.386Z,100559.16
2022-11-28T06:19:22.081Z,100557.31
2022-11-28T06:21:51.052Z,100556.47
2022-11-28T06:24:18.913Z,100556.47
2022-11-28T06:26:46.612Z,100550.94
2022-11-28T06:29:14.362Z,100545.88
2022-11-28T06:31:42.179Z,100547.50
2022-11-28T06:34:12.806Z,100550.38
2022-11-28T06:36:41.075Z,100551.88
2022-11-28T06:39:08.890Z,100552.44
2022-11-28T06:41:36.616Z,100564.38
2022-11-28T06:44:04.411Z,100571.25
2022-11-28T06:46:32.195Z,100573.09
2022-11-28T06:48:59.944Z,100575.13
2022-11-28T06:51:28.980Z,100579.84
2022-11-28T06:53:57.011Z,100576.31
2022-11-28T06:56:24.883Z,100579.16
2022-11-28T06:58:56.699Z,100584.72
2022-11-28T07:01:27.839Z,100593.66
2022-11-28T07:03:55.812Z,100597.66
2022-11-28T07:06:25.219Z,100610.25
2022-11-28T07:08:54.648Z,100615.81
2022-11-28T07:11:24.773Z,100618.19
2022-11-28T07:13:53.503Z,100612.75
2022-11-28T07:16:23.612Z,100611.41
2022-11-28T07:18:52.194Z,100615.94
2022-11-28T07:21:20.918Z,100614.59
2022-11-28T07:23:49.732Z,100617.91
2022-11-28T07:26:21.257Z,100614.53
2022-11-28T07:28:50.992Z,100615.03
2022-11-28T07:31:21.637Z,100620.41
2022-11-28T07:33:51.692Z,100616.53
2022-11-28T07:36:21.457Z,100611.53
2022-11-28T07:38:49.786Z,100618.47
2022-11-28T07:41:24.986Z,100616.28
2022-11-28T07:43:56.030Z,100610.59
2022-11-28T07:46:24.515Z,100613.63
2022-11-28T07:48:52.261Z,100619.03
2022-11-28T07:51:22.172Z,100626.41
2022-11-28T07:53:50.163Z,100624.53
2022-11-28T07:56:35.141Z,100624.84
2022-11-28T07:59:12.400Z,100632.94
2022-11-28T08:01:40.169Z,100634.63
2022-11-28T08:04:09.935Z,100623.84
2022-11-28T08:06:39.963Z,100631.25
2022-11-28T08:09:08.714Z,100629.69
2022-11-28T08:11:37.777Z,100627.19
2022-11-28T08:14:06.594Z,100613.41
2022-11-28T08:16:34.700Z,100617.91
2022-11-28T08:19:03.029Z,100614.34
2022-11-28T08:21:32.759Z,100615.50
2022-11-28T08:24:02.979Z,100611.09
2022-11-28T08:26:32.515Z,100592.88
2022-11-28T08:29:02.300Z,100602.31
2022-11-28T08:31:32.840Z,100615.59
2022-11-28T08:34:05.055Z,100621.19
2022-11-28T08:36:33.338Z,100611.97
2022-11-28T08:39:17.137Z,100620.03
2022-11-28T08:41:49.884Z,100620.75
2022-11-28T08:44:19.017Z,100620.03
2022-11-28T08:46:46.742Z,100616.66
2022-11-28T08:49:14.585Z,100619.66
2022-11-28T08:51:42.381Z,100618.63
2022-11-28T08:54:10.098Z,100620.31
2022-11-28T08:56:37.874Z,100621.97
2022-11-28T08:59:07.079Z,100630.13
2022-11-28T09:01:36.400Z,100629.13
2022-11-28T09:04:05.423Z,100622.56
2022-11-28T09:06:33.208Z,100625.31
2022-11-28T09:09:01.900Z,100630.41
2022-11-28T09:11:29.695Z,100626.72
2022-11-28T09:13:57.376Z,100626.66
2022-11-28T09:16:25.140Z,100621.09
2022-11-28T09:18:57.299Z,100629.19
2022-11-28T09:21:24.995Z,100624.81
2022-11-28T09:23:56.665Z,100624.81
2022-11-28T09:26:25.764Z,100623.66
2022-11-28T09:28:54.234Z,100622.66
2022-11-28T09:31:22.019Z,100632.94
2022-11-28T09:33:49.880Z,100632.09
2022-11-28T09:36:21.233Z,100624.16
2022-11-28T09:38:49.655Z,100633.88
2022-11-28T09:41:55.348Z,100638.44
2022-11-28T09:44:26.677Z,100636.28
2022-11-28T09:46:58.080Z,100633.56
2022-11-28T09:49:44.827Z,100636.91
2022-11-28T09:52:25.125Z,100626.13
2022-11-28T09:55:02.004Z,100622.59
2022-11-28T09:57:35.302Z,100619.41
2022-11-28T10:00:03.722Z,100629.19
2022-11-28T10:02:40.217Z,100624.94
2022-11-28T10:05:19.010Z,100626.56
2022-11-28T10:08:01.690Z,100619.34
2022-11-28T10:10:40.058Z,100622.94
2022-11-28T10:13:17.254Z,100610.94
2022-11-28T10:15:52.652Z,100615.78
2022-11-28T10:18:34.538Z,100605.13
2022-11-28T10:21:05.924Z,100609.31
2022-11-28T10:23:41.338Z,100605.53
2022-11-28T10:26:17.701Z,100603.31
2022-11-28T10:28:49.757Z,100605.72
2022-11-28T10:31:32.244Z,100599.53
2022-11-28T10:34:04.842Z,100596.84
2022-11-28T10:36:40.220Z,100603.56
2022-11-28T10:39:13.050Z,100597.34
2022-11-28T10:42:07.321Z,100602.84
2022-11-28T10:44:45.698Z,100598.47
2022-11-28T10:47:23.434Z,100593.81
2022-11-28T10:49:57.648Z,100592.13
2022-11-28T10:52:30.973Z,100595.84
2022-11-28T10:55:19.333Z,100595.78
2022-11-28T10:57:56.094Z,100585.28
2022-11-28T11:00:26.187Z,100599.78
2022-11-28T11:02:55.774Z,100587.03
2022-11-28T11:05:26.963Z,100587.94
2022-11-28T11:07:56.647Z,100584.88
2022-11-28T11:10:31.506Z,100590.25
2022-11-28T11:12:59.639Z,100596.97
2022-11-28T11:15:32.524Z,100606.84
2022-11-28T11:18:05.143Z,100587.97
2022-11-28T11:20:37.250Z,100589.66
2022-11-28T11:23:16.188Z,100575.53
2022-11-28T11:25:51.953Z,100580.75
2022-11-28T11:28:42.663Z,100574.50
2022-11-28T11:31:20.502Z,100578.31
2022-11-28T11:33:51.383Z,100581.31
2022-11-28T11:36:26.394Z,100582.59
2022-11-28T11:39:07.013Z,100586.47
2022-11-28T11:41:39.041Z,100590.38
2022-11-28T11:44:30.467Z,100581.56
2022-11-28T11:47:02.762Z,100569.41
2022-11-28T11:49:37.282Z,100566.91
2022-11-28T11:52:08.559Z,100572.78
2022-11-28T11:54:36.362Z,100568.22
2022-11-28T11:57:31.402Z,100569.41
2022-11-28T11:59:57.248Z,100564.22
2022-11-28T12:02:31.775Z,100569.22
2022-11-28T12:05:04.429Z,100563.00
2022-11-28T12:07:37.979Z,100562.75
2022-11-28T12:10:10.886Z,100560.53
2022-11-28T12:12:41.914Z,100562.41
2022-11-28T12:15:17.877Z,100559.41
2022-11-28T12:17:59.239Z,100554.31
2022-11-28T12:20:42.762Z,100560.16
2022-11-28T12:23:26.437Z,100564.22
2022-11-28T12:26:00.973Z,100565.72
2022-11-28T12:28:45.133Z,100555.94
2022-11-28T12:31:23.990Z,100553.97
2022-11-28T12:34:04.802Z,100555.94
2022-11-28T12:36:37.496Z,100555.66
2022-11-28T12:39:17.946Z,100559.59
2022-11-28T12:42:14.585Z,100562.56
2022-11-28T12:44:55.972Z,100565.34
2022-11-28T12:47:37.229Z,100561.53
2022-11-28T12:50:17.956Z,100564.53
2022-11-28T12:52:54.910Z,100560.16
2022-11-28T12:55:34.360Z,100566.22
2022-11-28T12:58:09.767Z,100569.53
2022-11-28T13:00:51.714Z,100563.59
2022-11-28T13:03:35.156Z,100557.28
2022-11-28T13:06:14.567Z,100564.72
2022-11-28T13:08:56.470Z,100567.88
2022-11-28T13:11:45.871Z,100554.03
2022-11-28T13:14:29.625Z,100562.13
2022-11-28T13:17:08.292Z,100562.78
2022-11-28T13:19:47.760Z,100569.66
2022-11-28T13:22:23.340Z,100565.47
2022-11-28T13:24:56.665Z,100563.59
2022-11-28T13:27:36.376Z,100562.50
2022-11-28T13:30:14.929Z,100565.63
2022-11-28T13:32:48.084Z,100567.13
2022-11-28T13:35:18.364Z,100570.31
2022-11-28T13:40:46.624Z,100567.41
2022-11-28T13:43:20.295Z,100565.75
2022-11-28T13:45:48.582Z,100564.81
2022-11-28T13:49:20.165Z,100559.03
2022-11-28T13:51:48.931Z,100562.69
2022-11-28T13:54:45.616Z,100567.69
2022-11-28T13:57:24.336Z,100561.09
2022-11-28T13:59:56.869Z,100573.91
2022-11-28T14:02:37.081Z,100567.13
2022-11-28T14:05:26.377Z,100569.72
2022-11-28T14:07:55.903Z,100575.19
2022-11-28T14:10:36.212Z,100576.22
2022-11-28T14:13:23.260Z,100587.00
2022-11-28T14:16:07.807Z,100585.78
2022-11-28T14:18:57.598Z,100595.38
2022-11-28T14:21:40.002Z,100586.34
2022-11-28T14:24:17.188Z,100591.56
2022-11-28T14:26:45.678Z,100592.28
2022-11-28T14:29:22.517Z,100593.84
2022-11-28T14:32:21.838Z,100596.00
2022-11-28T14:34:45.035Z,100597.56
2022-11-28T14:37:37.630Z,100594.22
2022-11-28T14:40:47.018Z,100591.16
2022-11-28T14:43:28.298Z,100605.94
2022-11-28T14:46:19.392Z,100585.59
2022-11-28T14:49:14.258Z,100596.91
2022-11-28T14:52:38.915Z,100600.94
2022-11-28T14:54:58.485Z,100598.47
2022-11-28T14:57:30.413Z,100600.97
2022-11-28T15:00:00.683Z,100601.53
2022-11-28T15:02:52.916Z,100596.13
2022-11-28T15:05:44.357Z,100598.34
2022-11-28T15:08:26.081Z,100607.44
2022-11-28T15:11:06.716Z,100618.09
2022-11-28T15:13:49.223Z,100601.78
2022-11-28T15:16:19.960Z,100610.38
2022-11-28T15:18:50.908Z,100614.75
2022-11-28T15:21:20.478Z,100615.41
2022-11-28T15:23:48.202Z,100607.63
2022-11-28T15:26:22.618Z,100600.22
2022-11-28T15:28:51.260Z,100604.22
2022-11-28T15:31:23.584Z,100603.22
2022-11-28T15:33:51.980Z,100601.53
2022-11-28T15:36:27.402Z,100601.91
2022-11-28T15:38:56.155Z,100603.56
2022-11-28T15:41:27.933Z,100607.63
2022-11-28T15:43:57.080Z,100605.59
2022-11-28T15:46:30.120Z,100608.66
2022-11-28T15:48:58.176Z,100609.00
2022-11-28T15:51:30.797Z,100613.44
2022-11-28T15:53:59.327Z,100603.00
2022-11-28T15:56:28.462Z,100610.28
2022-11-28T15:58:56.370Z,100609.66
2022-11-28T16:01:25.537Z,100609.13
2022-11-28T16:03:57.265Z,100606.44
2022-11-28T16:06:27.861Z,100609.78
2022-11-28T16:08:58.915Z,100607.63
2022-11-28T16:11:30.616Z,100608.78
2022-11-28T16:14:01.043Z,100605.41
2022-11-28T16:16:33.283Z,100607.97
2022-11-28T16:19:04.430Z,100602.06
2022-11-28T16:21:37.072Z,100602.06
2022-11-28T16:24:18.726Z,100602.59
2022-11-28T16:26:59.625Z,100599.38
2022-11-28T16:29:34.668Z,100601.41
2022-11-28T16:32:10.419Z,100603.78
2022-11-28T16:34:45.875Z,100604.47
2022-11-28T16:37:14.526Z,100603.44
2022-11-28T16:39:42.962Z,100613.53
2022-11-28T16:42:17.594Z,100606.78
2022-11-28T16:44:45.794Z,100605.97
2022-11-28T16:47:29.009Z,100616.25
2022-11-28T16:50:22.400Z,100614.03
2022-11-28T16:52:52.311Z,100614.81
2022-11-28T16:55:40.179Z,100615.09
2022-11-28T16:58:25.193Z,100625.53
2022-11-28T17:01:00.090Z,100622.66
2022-11-28T17:03:49.373Z,100619.44
2022-11-28T17:06:24.404Z,100622.28
2022-11-28T17:08:52.474Z,100618.47
2022-11-28T17:11:23.116Z,100622.53
2022-11-28T17:13:52.866Z,100619.47
2022-11-28T17:16:24.671Z,100618.53
2022-11-28T17:18:52.426Z,100621.56
2022-11-28T17:21:28.564Z,100619.91
2022-11-28T17:23:58.800Z,100631.69
2022-11-28T17:26:28.017Z,100636.41
2022-11-28T17:28:58.384Z,100633.59
2022-11-28T17:31:26.251Z,100645.09
2022-11-28T17:33:54.141Z,100650.34
2022-11-28T17:36:21.834Z,100644.94
2022-11-28T17:38:49.582Z,100646.47
2022-11-28T17:41:17.315Z,100649.97
2022-11-28T17:43:45.125Z,100649.47
2022-11-28T17:46:14.182Z,100655.72
2022-11-28T17:48:41.928Z,100651.66
2022-11-28T17:51:11.503Z,100655.00
2022-11-28T17:53:39.359Z,100649.78
2022-11-28T17:56:07.749Z,100650.47
2022-11-28T17:58:35.485Z,100650.63
2022-11-28T18:01:03.270Z,100653.03
2022-11-28T18:03:32.344Z,100666.50
2022-11-28T18:06:00.027Z,100656.69
2022-11-28T18:08:27.764Z,100656.19
2022-11-28T18:11:03.628Z,100665.94
2022-11-28T18:13:31.296Z,100666.00
2022-11-28T18:15:59.029Z,100651.53
2022-11-28T18:18:26.718Z,100653.66
2022-11-28T18:20:56.021Z,100660.75
2022-11-28T18:23:23.958Z,100655.34
2022-11-28T18:25:51.958Z,100662.06
2022-11-28T18:28:21.022Z,100659.69
2022-11-28T18:30:49.216Z,100658.50
2022-11-28T18:33:18.025Z,100660.00
2022-11-28T18:35:46.152Z,100669.44
2022-11-28T18:38:15.438Z,100663.88
2022-11-28T18:40:43.289Z,100665.38
2022-11-28T18:43:11.769Z,100675.97
2022-11-28T18:45:39.838Z,100676.34
2022-11-28T18:48:07.769Z,100681.22
2022-11-28T18:50:35.839Z,100668.78
2022-11-28T18:53:03.829Z,100685.59
2022-11-28T18:55:33.420Z,100690.50
2022-11-28T18:58:01.613Z,100689.00
2022-11-28T19:00:29.474Z,100686.63
2022-11-28T19:02:57.445Z,100687.81
2022-11-28T19:05:25.366Z,100692.56
2022-11-28T19:07:53.277Z,100688.66
2022-11-28T19:10:21.062Z,100690.69
2022-11-28T19:12:50.139Z,100694.72
2022-11-28T19:15:18.101Z,100688.19
2022-11-28T19:17:45.779Z,100689.03
2022-11-28T19:20:13.785Z,100685.03
2022-11-28T19:22:41.759Z,100687.91
2022-11-28T19:25:10.167Z,100686.72
2022-11-28T19:27:37.883Z,100686.38
2022-11-28T19:30:08.210Z,100681.50
2022-11-28T19:32:37.002Z,100687.72
2022-11-28T19:35:05.282Z,100686.38
2022-11-28T19:37:33.075Z,100690.41
2022-11-28T19:40:02.805Z,100688.03
2022-11-28T19:42:30.879Z,100694.13
2022-11-28T19:44:58.754Z,100694.47
2022-11-28T19:47:27.884Z,100694.47
2022-11-28T19:49:55.557Z,100696.84
2022-11-28T19:52:23.282Z,100689.25
2022-11-28T19:54:51.123Z,100695.66
2022-11-28T19:57:20.775Z,100698.84
2022-11-28T19:59:50.197Z,100698.66
2022-11-28T20:02:25.476Z,100697.50
2022-11-28T20:04:55.879Z,100700.88
2022-11-28T20:07:24.057Z,100700.56
2022-11-28T20:09:52.229Z,100700.22
2022-11-28T20:12:20.042Z,100708.28
2022-11-28T20:14:47.947Z,100712.97
2022-11-28T20:17:15.768Z,100710.63
2022-11-28T20:19:46.597Z,100719.84
2022-11-28T20:22:16.558Z,100706.16
2022-11-28T20:24:44.269Z,100717.28
2022-11-28T20:27:11.999Z,100718.16
2022-11-28T20:29:39.787Z,100716.28
2022-11-28T20:32:07.757Z,100721.53
2022-11-28T20:34:35.531Z,100719.69
2022-11-28T20:37:03.293Z,100715.31
2022-11-28T20:39:32.502Z,100717.31
2022-11-28T20:42:00.381Z,100724.56
2022-11-28T20:44:28.096Z,100717.00
2022-11-28T20:46:55.932Z,100717.47
2022-11-28T20:49:23.700Z,100713.78
2022-11-28T20:51:51.421Z,100717.50
2022-11-28T20:54:19.511Z,100721.72
2022-11-28T20:59:36.431Z,100717.69
2022-11-28T21:02:04.575Z,100721.72
2022-11-28T21:04:32.653Z,100726.09
2022-11-28T21:07:00.788Z,100724.56
2022-11-28T21:09:28.514Z,100732.81
2022-11-28T21:11:59.180Z,100728.81
2022-11-28T21:14:29.173Z,100726.13
2022-11-28T21:16:58.291Z,100733.34
2022-11-28T21:19:26.366Z,100731.50
2022-11-28T21:21:54.260Z,100727.44
2022-11-28T21:24:23.210Z,100733.00
2022-11-28T21:26:54.149Z,100731.16
2022-11-28T21:29:25.335Z,100736.03
2022-11-28T21:31:53.631Z,100732.31
2022-11-28T21:34:22.398Z,100734.66
2022-11-28T21:36:50.283Z,100730.75
2022-11-28T21:39:20.431Z,100732.91
2022-11-28T21:41:48.799Z,100722.25
2022-11-28T21:44:16.588Z,100723.63
2022-11-28T21:46:45.648Z,100727.94
2022-11-28T21:49:13.593Z,100723.03
2022-11-28T21:51:41.650Z,100729.28
2022-11-28T21:54:11.196Z,100731.38
2022-11-28T21:56:39.244Z,100735.13
2022-11-28T21:59:07.162Z,100731.56
2022-11-28T22:01:34.896Z,100734.44
2022-11-28T22:04:04.116Z,100731.56
2022-11-28T22:06:33.438Z,100739.47
2022-11-28T22:09:08.636Z,100734.59
2022-11-28T22:11:37.627Z,100736.44
2022-11-28T22:14:05.323Z,100738.13
2022-11-28T22:16:33.155Z,100731.72
2022-11-28T22:19:01.338Z,100735.25
2022-11-28T22:24:18.502Z,100737.28
2022-11-28T22:26:46.266Z,100744.34
2022-11-28T22:29:14.308Z,100736.44
2022-11-28T22:31:42.112Z,100740.81
2022-11-28T22:34:10.182Z,100745.84
2022-11-28T22:36:39.540Z,100740.09
2022-11-28T22:39:07.315Z,100750.53
2022-11-28T22:41:35.052Z,100750.19
2022-11-28T22:44:04.082Z,100760.28
2022-11-28T22:46:34.915Z,100759.13
2022-11-28T22:49:02.972Z,100755.63
2022-11-28T22:51:31.717Z,100754.25
2022-11-28T22:54:01.926Z,100753.38
2022-11-28T22:56:31.120Z,100750.53
2022-11-28T22:58:58.927Z,100756.75
2022-11-28T23:01:29.096Z,100754.91
2022-11-28T23:03:57.515Z,100760.13
2022-11-28T23:06:28.109Z,100756.22
2022-11-28T23:08:56.547Z,100760.59
2022-11-28T23:11:27.698Z,100753.53
2022-11-28T23:13:56.362Z,100756.91
2022-11-28T23:16:27.270Z,100765.16
2022-11-28T23:18:57.200Z,100765.66
2022-11-28T23:21:26.430Z,100761.66
2022-11-28T23:23:54.645Z,100764.34
2022-11-28T23:26:24.260Z,100762.00
2022-11-28T23:28:54.322Z,100759.31
2022-11-28T23:31:23.997Z,100758.63
2022-11-28T23:33:52.035Z,100763.56
2022-11-28T23:36:21.364Z,100762.38
2022-11-28T23:38:50.670Z,100765.06
2022-11-28T23:41:18.809Z,100770.94
2022-11-28T23:43:46.826Z,100767.44
2022-11-28T23:46:17.141Z,100766.25
2022-11-28T23:48:45.746Z,100770.44
2022-11-28T23:51:15.311Z,100759.84
2022-11-28T23:53:43.451Z,100764.59
2022-11-28T23:56:13.437Z,100764.59
2022-11-28T23:58:42.119Z,100760.25
